Terminal Aerodrome Forecast
Issued by NWS Charleston, WV

Home | Current Version | Previous Version | Text Only | Print | Product List | Glossary On
Versions: 1 2 3 4 5 6 7 8 9 10 11 12 13 14 15 16 17 18 19 20 21 22 23 24 25 26 27 28 29 30 31 32
000
FTUS41 KRLX 232223 AAF
TAFPKB
TAF AMD
KPKB 232223Z 2322/2418 27005KT P6SM SCT035
     FM232300 25006KT P6SM OVC025
      TEMPO 2323/2402 4SM +SHRA OVC015
     FM240400 00000KT 6SM BR OVC015
     FM240800 00000KT 4SM +SHRA BR OVC015
     FM241200 00000KT 1SM +SHRA BR OVC003=

USA.gov is the U.S. government's official web portal to all federal, state and local government web resources and services.